EDLW/DTM METAR and TAF weather

Enter ICAO airport designator
Station Type Date Time Source
EDLW METAR 2021/08/05 04:50 UTC NOAA

EDLW 050450Z VRB02KT CAVOK 14/13 Q1010


Station Type Date Time Source
EDLW Decoded METAR 2021/08/05 04:50 UTC NOAA

Dortmund / Wickede, Germany (EDLW) 51-31N 007-37E
Aug 05, 2021 - 12:50 AM EDT / 2021.08.05 0450 UTC
Wind: Variable at 2 MPH (2 KT):0
Visibility: greater than 7 mile(s):0
Temperature: 57 F (14 C)
Dew Point: 55 F (13 C)
Relative Humidity: 93%
Pressure (altimeter): 29.83 in. Hg (1010 hPa)
ob: EDLW 050450Z VRB02KT CAVOK 14/13 Q1010
cycle: 5

Station Type Date Time Source
EDLW TAF 2021/08/05 04:12 UTC NOAA

TAF TAF EDLW 050359Z 0504/0524 21004KT CAVOK
TEMPO 0510/0518 SHRA SCT020CB PROB30
TEMPO 0511/0516 TSRA
BECMG 0519/0522 15005KT

Example: see airport list